Station: Minlaton Airport  

  Atmospheric Gas Attenuation - ITU Rec 676-11   ----------------- dB/100km -----------------
Date Time Temp RH % AH g/m3 Dew Point Wind Direction Speed kph Gust kph Barometer mB Rainfall Since 9am 24GHz 47GHz 76GHz 122GHz 134GHz 241GHz
08/05 12:00 16.2 75 10.34 11.8 20 28 1031.4 0 23.1 28.7 46.5 122.0 120.1 414.4
08/05 11:50 16.1 74 10.14 11.5 24 26 1031.5 0 22.7 28.4 45.7 120.0 117.5 405.4
08/05 11:40 16 73 9.95 11.2 26 30 1031.6 0 22.3 28.1 45.0 118.0 115.1 396.9
08/05 11:30 16.9 68 9.78 11 19 26 1031.9 0 21.9 27.6 43.8 114.9 111.5 384.5
08/05 11:20 16.2 71 9.79 10.9 20 24 1032 0 22.0 27.8 44.2 116.0 112.6 388.4
08/05 11:10 15.8 73 9.83 11 24 26 1032.1 0 22.1 28.0 44.6 117.1 113.8 392.4
08/05 11:00 15.7 72 9.63 10.7 19 26 1032.3 0 21.7 27.7 43.9 115.0 111.2 383.4
08/05 10:50 15.7 74 9.9 11.1 11 15 1032.3 0 22.2 28.2 45.0 118.0 114.9 396.3
08/05 10:40 15.2 75 9.73 10.8 20 24 1032.4 0 21.9 28.1 44.6 116.9 113.3 390.7
08/05 10:30 15.3 71 9.27 10.1 19 24 1032.4 0 20.9 27.3 42.6 111.7 107.0 368.4
08/05 10:20 15.4 70 9.2 10 20 22 1032.2 0 20.8 27.1 42.3 110.7 105.9 364.6
08/05 10:10 15.6 69 9.18 9.9 20 24 1032.2 0 20.7 27.0 42.1 110.3 105.3 362.7
08/05 10:00 15.4 70 9.2 10 17 22 1032.3 0 20.8 27.1 42.3 110.8 105.9 364.6
08/05 09:50 15.2 71 9.22 10 19 20 1032.2 0 20.8 27.2 42.4 111.2 106.4 366.5
08/05 09:40 15.1 72 9.29 10.1 20 22 1032.2 0 21.0 27.4 42.8 112.2 107.5 370.2
08/05 09:30 14.9 71 9.05 9.7 22 28 1032.3 0 20.5 27.0 41.9 109.8 104.5 359.9
08/05 09:20 15 72 9.23 10 19 22 1032.2 0 20.8 27.3 42.6 111.6 106.8 367.9
08/05 09:10 15 72 9.23 10 17 19 1032.1 0 20.8 27.3 42.6 111.6 106.8 367.8
08/05 09:00 14.7 73 9.19 9.9 22 28 1032.1 0 20.8 27.3 42.6 111.6 106.7 367.4
08/05 08:50 14.7 72 9.07 9.7 22 26 1032 0 20.5 27.1 42.1 110.3 105.1 361.7
08/05 08:40 14.7 71 8.94 9.5 20 24 1031.9 0 20.2 26.9 41.6 108.9 103.3 355.6
08/05 08:30 14.5 72 8.96 9.5 15 20 1032 0 20.3 27.0 41.7 109.4 103.8 357.4
08/05 08:20 14.4 73 9.02 9.6 15 15 1031.8 0 20.4 27.1 42.0 110.1 104.8 360.6
08/05 08:10 14.3 74 9.09 9.7 13 13 1031.6 0 20.6 27.2 42.4 111.0 105.8 364.4
08/05 08:00 14.2 75 9.16 9.8 15 19 1031.5 0 20.7 27.4 42.7 111.9 106.9 368.1
08/05 07:50 14 75 9.05 9.6 15 17 1031.5 0 20.5 27.3 42.4 111.0 105.7 363.8
08/05 07:40 14 75 9.05 9.6 17 19 1031.3 0 20.5 27.3 42.3 111.0 105.7 363.8
08/05 07:30 14 74 8.93 9.4 19 24 1031.2 0 20.3 27.1 41.8 109.7 104.0 358.1
08/05 07:20 13.8 73 8.7 9 15 15 1031.1 0 19.8 26.7 41.0 107.4 101.2 348.1
08/05 07:10 13.7 73 8.64 9 11 11 1031 0 19.7 26.7 40.8 106.9 100.5 345.7
08/05 07:00 13.6 73 8.59 8.9 13 19 1030.9 0 19.6 26.6 40.7 106.5 100.0 343.8
08/05 06:50 13.6 74 8.71 9.1 15 15 1030.9 0 19.8 26.8 41.1 107.8 101.6 349.4
08/05 06:40 13.4 74 8.6 8.9 13 15 1030.9 0 19.6 26.7 40.8 106.8 100.4 345.1
08/05 06:30 13.2 74 8.5 8.7 11 15 1030.9 0 19.4 26.6 40.5 106.0 99.3 341.3
08/05 06:20 13.1 74 8.44 8.6 9 11 1030.9 0 19.3 26.5 40.3 105.5 98.6 338.9
08/05 06:10 13.2 73 8.38 8.5 11 11 1030.9 0 19.1 26.4 40.0 104.7 97.7 335.6
08/05 06:00 13.3 73 8.43 8.6 11 17 1030.9 0 19.2 26.4 40.2 105.1 98.2 337.6
08/05 05:50 13.4 72 8.37 8.5 13 15 1031 0 19.1 26.3 39.9 104.4 97.3 334.4
08/05 05:40 13.5 72 8.42 8.6 13 17 1031 0 19.2 26.4 40.0 104.8 97.8 336.3
08/05 05:30 13.7 71 8.41 8.5 17 20 1030.9 0 19.2 26.3 39.9 104.4 97.4 334.9
08/05 05:20 13.7 71 8.41 8.5 19 20 1030.9 0 19.2 26.3 39.9 104.4 97.4 334.9
08/05 05:10 13.9 70 8.39 8.5 19 20 1030.7 0 19.1 26.2 39.7 103.9 96.9 333.1
08/05 05:00 14 70 8.44 8.6 22 28 1030.6 0 19.2 26.2 39.8 104.3 97.4 335.0
08/05 04:50 13.8 70 8.34 8.4 15 17 1030.5 0 19.0 26.1 39.5 103.5 96.4 331.1
08/05 04:40 13.9 69 8.27 8.3 19 20 1030.5 0 18.9 26.0 39.2 102.6 95.3 327.5
08/05 04:30 13.9 68 8.15 8.1 20 26 1030.5 0 18.6 25.8 38.7 101.3 93.7 322.0
08/05 04:20 13.8 70 8.34 8.4 19 22 1030.5 0 19.0 26.1 39.5 103.5 96.4 331.1
08/05 04:10 13.7 71 8.41 8.5 15 17 1030.5 0 19.2 26.3 39.9 104.3 97.4 334.8
08/05 04:00 13.5 72 8.42 8.6 17 20 1030.6 0 19.2 26.3 40.0 104.7 97.8 336.2
08/05 03:50 13.5 72 8.42 8.6 15 17 1030.6 0 19.2 26.3 40.0 104.7 97.8 336.2
08/05 03:40 13.4 72 8.37 8.5 17 20 1030.6 0 19.1 26.3 39.8 104.3 97.3 334.2
08/05 03:30 13.2 72 8.27 8.3 13 17 1030.6 0 18.9 26.2 39.5 103.5 96.2 330.4
08/05 03:20 13 71 8.05 7.9 9 11 1030.7 0 18.4 25.9 38.8 101.4 93.5 321.1
08/05 03:10 13 71 8.05 7.9 13 13 1030.7 0 18.4 25.9 38.8 101.4 93.5 321.1
08/05 03:00 13 71 8.05 7.9 13 17 1030.8 0 18.4 25.9 38.8 101.4 93.5 321.1
08/05 02:50 13 72 8.17 8.1 13 15 1030.8 0 18.7 26.1 39.2 102.7 95.1 326.7
08/05 02:40 13 72 8.17 8.1 13 13 1030.8 0 18.7 26.1 39.2 102.7 95.1 326.7
08/05 02:30 13.1 73 8.33 8.4 13 17 1030.9 0 19.0 26.3 39.8 104.3 97.1 333.7
08/05 02:20 13.1 72 8.22 8.2 15 17 1030.9 0 18.8 26.1 39.4 103.1 95.7 328.6
08/05 02:10 13.4 71 8.25 8.3 15 15 1030.9 0 18.8 26.1 39.4 103.1 95.7 328.7
08/05 02:00 13.5 71 8.31 8.4 19 24 1031 0 19.0 26.2 39.6 103.6 96.4 331.1
08/05 01:50 13.1 71 8.1 8 17 20 1031 0 18.5 26.0 38.9 101.8 94.1 323.0
08/05 01:40 12.8 70 7.84 7.5 13 15 1031.1 0 18.0 25.6 38.0 99.4 91.0 312.2
08/05 01:30 13 69 7.83 7.5 13 15 1031.1 0 18.0 25.6 37.9 99.1 90.6 311.0
08/05 01:20 13.1 67 7.65 7.1 13 15 1031.1 0 17.6 25.2 37.1 97.1 88.2 302.3
08/05 01:10 13.3 66 7.63 7.1 15 17 1031 0 17.5 25.1 37.0 96.6 87.7 300.7
08/05 01:00 13.4 66 7.67 7.2 19 22 1031.1 0 17.6 25.2 37.1 96.9 88.1 302.1
08/05 00:50 13.1 67 7.65 7.1 19 20 1031.1 0 17.6 25.2 37.1 97.1 88.2 302.3
08/05 00:40 12.9 69 7.78 7.4 17 20 1031.1 0 17.9 25.5 37.7 98.7 90.1 309.1
08/05 00:30 13.1 68 7.76 7.3 17 24 1031.1 0 17.8 25.4 37.6 98.2 89.6 307.4
08/05 00:20 13.3 67 7.74 7.3 17 19 1031.1 0 17.8 25.3 37.4 97.8 89.1 305.7
08/05 00:10 13.5 66 7.72 7.3 19 20 1031.1 0 17.7 25.2 37.2 97.3 88.6 304.0
08/05 00:00 13.5 66 7.72 7.3 17 24 1031.1 0 17.7 25.2 37.2 97.3 88.6 304.0
07/05 23:50 13.4 67 7.79 7.4 17 20 1031.2 0 17.9 25.4 37.6 98.2 89.7 307.6
07/05 23:40 13.3 68 7.86 7.5 20 22 1031.2 0 18.0 25.5 37.9 99.0 90.7 311.2
07/05 23:30 13.5 66 7.72 7.3 19 26 1031.3 0 17.7 25.2 37.2 97.3 88.6 304.1
07/05 23:20 13.1 70 7.99 7.8 17 17 1031.3 0 18.3 25.8 38.5 100.7 92.6 318.0
07/05 23:10 13.1 72 8.22 8.2 15 17 1031.3 0 18.8 26.2 39.4 103.2 95.7 328.7
07/05 23:00 13 73 8.28 8.3 13 17 1031.3 0 18.9 26.3 39.7 103.9 96.6 331.9
07/05 22:50 13 74 8.39 8.5 15 17 1031.5 0 19.2 26.5 40.2 105.2 98.1 337.1
07/05 22:40 13 74 8.39 8.5 11 13 1031.5 0 19.2 26.5 40.2 105.2 98.1 337.1
07/05 22:30 12.9 73 8.23 8.2 13 15 1031.7 0 18.8 26.3 39.6 103.6 96.1 330.1
07/05 22:20 12.9 73 8.23 8.2 11 13 1031.7 0 18.8 26.3 39.6 103.6 96.1 330.1
07/05 22:10 13 72 8.17 8.1 15 17 1031.7 0 18.7 26.1 39.3 102.8 95.2 326.9
07/05 22:00 13.2 71 8.15 8.1 20 26 1031.9 0 18.6 26.0 39.1 102.3 94.7 325.2
07/05 21:50 13.4 70 8.14 8 22 26 1031.8 0 18.6 26.0 39.0 102.0 94.3 323.9
07/05 21:40 13.2 71 8.15 8.1 20 22 1031.7 0 18.6 26.0 39.1 102.3 94.7 325.1
07/05 21:30 12.9 72 8.12 8 13 15 1031.8 0 18.6 26.1 39.1 102.4 94.6 325.0
07/05 21:20 12.7 72 8.02 7.8 11 11 1031.7 0 18.4 26.0 38.8 101.6 93.5 321.1
07/05 21:10 12.5 72 7.92 7.6 11 13 1031.7 0 18.2 25.9 38.5 100.7 92.5 317.3
07/05 21:00 12.5 72 7.92 7.6 13 15 1031.8 0 18.2 25.9 38.5 100.8 92.5 317.3
07/05 20:50 12.5 71 7.81 7.4 11 13 1031.6 0 17.9 25.7 38.1 99.6 91.0 312.2
07/05 20:40 12.7 72 8.02 7.8 11 11 1031.6 0 18.4 26.0 38.8 101.6 93.5 321.1
07/05 20:30 12.6 72 7.97 7.7 9 13 1031.8 0 18.3 25.9 38.7 101.2 93.0 319.2
07/05 20:20 12.6 72 7.97 7.7 7 9 1031.7 0 18.3 25.9 38.7 101.2 93.0 319.2
07/05 20:10 12.7 72 8.02 7.8 7 9 1031.8 0 18.4 26.0 38.8 101.6 93.6 321.2
07/05 20:00 12.7 71 7.9 7.6 9 11 1031.9 0 18.1 25.8 38.4 100.3 92.0 315.6
07/05 19:50 12.8 71 7.95 7.7 11 11 1031.7 0 18.2 25.8 38.5 100.7 92.5 317.5
07/05 19:40 12.8 70 7.84 7.5 13 13 1031.8 0 18.0 25.7 38.1 99.5 91.1 312.4
07/05 19:30 12.9 70 7.89 7.6 13 15 1031.8 0 18.1 25.7 38.2 99.9 91.6 314.3

Last Refresh: 08-May-2026 12:07:37

Bureau of Meteorology